createdAt,value
2022-12-29T00:01:59.417Z,88.00
2022-12-29T00:04:24.139Z,88.00
2022-12-29T00:06:47.656Z,88.00
2022-12-29T00:09:13.396Z,88.50
2022-12-29T00:11:36.755Z,87.80
2022-12-29T00:14:22.774Z,87.70
2022-12-29T00:16:49.144Z,87.40
2022-12-29T00:19:27.387Z,86.80
2022-12-29T00:22:09.580Z,86.50
2022-12-29T00:24:50.481Z,86.00
2022-12-29T00:27:32.201Z,86.20
2022-12-29T00:30:14.276Z,87.20
2022-12-29T00:32:55.584Z,87.10
2022-12-29T00:35:26.296Z,87.30
2022-12-29T00:38:08.487Z,87.40
2022-12-29T00:40:49.596Z,88.00
2022-12-29T00:43:32.836Z,89.00
2022-12-29T00:45:56.176Z,90.50
2022-12-29T00:48:39.785Z,90.90
2022-12-29T00:51:02.141Z,91.20
2022-12-29T00:53:26.705Z,91.10
2022-12-29T00:55:49.954Z,91.20
2022-12-29T00:58:13.875Z,90.70
2022-12-29T01:00:37.292Z,90.40
2022-12-29T01:03:00.871Z,89.40
2022-12-29T01:05:24.212Z,88.20
2022-12-29T01:07:47.568Z,87.30
2022-12-29T01:10:11.388Z,87.40
2022-12-29T01:12:46.304Z,87.80
2022-12-29T01:15:12.399Z,86.30
2022-12-29T01:17:36.110Z,85.50
2022-12-29T01:19:59.583Z,85.10
2022-12-29T01:22:22.977Z,85.10
2022-12-29T01:24:46.416Z,83.60
2022-12-29T01:27:11.435Z,84.00
2022-12-29T01:29:34.685Z,84.00
2022-12-29T01:31:58.055Z,83.80
2022-12-29T01:34:21.500Z,84.30
2022-12-29T01:36:44.819Z,84.80
2022-12-29T01:39:09.186Z,83.30
2022-12-29T01:41:32.972Z,82.90
2022-12-29T01:44:02.130Z,83.00
2022-12-29T01:46:30.425Z,82.40
2022-12-29T01:48:59.804Z,83.70
2022-12-29T01:51:25.864Z,83.70
2022-12-29T01:53:49.639Z,82.50
2022-12-29T01:56:17.212Z,82.80
2022-12-29T01:58:46.854Z,83.10
2022-12-29T02:01:12.223Z,82.30
2022-12-29T02:03:36.884Z,82.50
2022-12-29T02:06:05.702Z,83.10
2022-12-29T02:08:31.630Z,82.80
2022-12-29T02:10:57.852Z,81.80
2022-12-29T02:13:21.262Z,81.90
2022-12-29T02:15:59.125Z,82.10
2022-12-29T02:18:37.218Z,81.90
2022-12-29T02:21:50.472Z,81.50
2022-12-29T02:24:49.850Z,81.10
2022-12-29T02:27:39.029Z,81.00
2022-12-29T02:30:10.652Z,81.50
2022-12-29T02:32:48.570Z,81.60
2022-12-29T02:35:26.562Z,81.30
2022-12-29T02:38:04.012Z,80.70
2022-12-29T02:40:33.044Z,80.50
2022-12-29T02:43:06.576Z,80.00
2022-12-29T02:45:39.099Z,79.60
2022-12-29T02:48:12.798Z,79.80
2022-12-29T02:50:40.291Z,79.70
2022-12-29T02:53:07.943Z,78.60
2022-12-29T02:55:30.561Z,78.70
2022-12-29T02:58:17.557Z,79.20
2022-12-29T03:00:55.945Z,79.70
2022-12-29T03:03:35.316Z,79.70
2022-12-29T03:06:16.768Z,79.90
2022-12-29T03:08:51.731Z,79.60
2022-12-29T03:11:30.640Z,79.70
2022-12-29T03:14:16.325Z,79.80
2022-12-29T03:16:47.908Z,80.20
2022-12-29T03:19:19.399Z,80.40
2022-12-29T03:22:04.502Z,80.60
2022-12-29T03:24:40.758Z,79.70
2022-12-29T03:27:08.469Z,79.10
2022-12-29T03:29:42.131Z,79.30
2022-12-29T03:32:08.163Z,79.70
2022-12-29T03:34:33.941Z,79.90
2022-12-29T03:37:07.292Z,80.60
2022-12-29T03:39:31.127Z,80.60
2022-12-29T03:42:03.222Z,81.40
2022-12-29T03:44:35.407Z,81.50
2022-12-29T03:46:59.288Z,81.40
2022-12-29T03:49:22.954Z,81.60
2022-12-29T03:51:51.973Z,81.50
2022-12-29T03:54:15.774Z,81.70
2022-12-29T03:56:39.857Z,81.70
2022-12-29T03:59:03.309Z,81.70
2022-12-29T04:01:35.124Z,81.90
2022-12-29T04:03:59.134Z,81.80
2022-12-29T04:06:22.879Z,81.80
2022-12-29T04:08:52.321Z,81.70
2022-12-29T04:11:15.707Z,81.60
2022-12-29T04:13:41.724Z,81.10
2022-12-29T04:16:07.262Z,81.20
2022-12-29T04:18:31.349Z,80.80
2022-12-29T04:21:04.564Z,80.40
2022-12-29T04:23:30.756Z,80.50
2022-12-29T04:25:55.696Z,81.20
2022-12-29T04:28:19.511Z,80.40
2022-12-29T04:30:48.803Z,79.90
2022-12-29T04:33:16.223Z,78.70
2022-12-29T04:35:42.453Z,78.60
2022-12-29T04:38:05.937Z,79.20
2022-12-29T04:40:29.347Z,78.50
2022-12-29T04:42:54.469Z,79.00
2022-12-29T04:45:19.075Z,79.00
2022-12-29T04:48:08.603Z,78.30
2022-12-29T04:50:40.862Z,79.10
2022-12-29T04:53:12.632Z,77.60
2022-12-29T04:55:36.481Z,77.60
2022-12-29T04:58:01.421Z,77.30
2022-12-29T05:00:27.604Z,77.60
2022-12-29T05:02:51.388Z,77.50
2022-12-29T05:05:15.145Z,76.80
2022-12-29T05:07:42.906Z,75.70
2022-12-29T05:10:08.141Z,75.50
2022-12-29T05:12:32.929Z,76.30
2022-12-29T05:14:58.734Z,75.10
2022-12-29T05:17:22.060Z,74.80
2022-12-29T05:19:45.376Z,74.60
2022-12-29T05:22:09.219Z,74.20
2022-12-29T05:24:32.565Z,73.20
2022-12-29T05:26:57.189Z,73.00
2022-12-29T05:29:39.296Z,73.30
2022-12-29T05:32:04.093Z,75.70
2022-12-29T05:34:27.492Z,77.40
2022-12-29T05:36:50.904Z,79.00
2022-12-29T05:39:14.240Z,80.00
2022-12-29T05:41:39.771Z,80.80
2022-12-29T05:44:23.882Z,81.40
2022-12-29T05:47:08.039Z,82.50
2022-12-29T05:49:54.412Z,82.90
2022-12-29T05:52:40.624Z,83.20
2022-12-29T05:55:03.979Z,83.70
2022-12-29T05:57:28.983Z,83.90
2022-12-29T06:00:02.275Z,83.90
2022-12-29T06:02:27.897Z,84.10
2022-12-29T06:04:51.388Z,84.20
2022-12-29T06:07:15.078Z,84.10
2022-12-29T06:09:40.748Z,84.10
2022-12-29T06:12:06.141Z,84.30
2022-12-29T06:14:30.329Z,84.10
2022-12-29T06:16:55.354Z,84.00
2022-12-29T06:19:20.323Z,83.60
2022-12-29T06:21:43.621Z,82.70
2022-12-29T06:24:08.022Z,82.40
2022-12-29T06:26:33.709Z,81.80
2022-12-29T06:28:57.000Z,80.20
2022-12-29T06:31:20.514Z,80.10
2022-12-29T06:33:49.570Z,79.90
2022-12-29T06:36:14.652Z,79.30
2022-12-29T06:38:38.141Z,78.60
2022-12-29T06:41:01.468Z,78.50
2022-12-29T06:43:47.603Z,78.70
2022-12-29T06:46:20.418Z,79.20
2022-12-29T06:48:44.161Z,78.60
2022-12-29T06:51:07.404Z,78.30
2022-12-29T06:53:32.088Z,77.90
2022-12-29T06:55:55.506Z,77.60
2022-12-29T06:58:18.826Z,77.70
2022-12-29T07:00:42.139Z,78.40
2022-12-29T07:03:05.545Z,77.90
2022-12-29T07:05:29.637Z,77.30
2022-12-29T07:07:53.292Z,77.70
2022-12-29T07:10:18.255Z,77.10
2022-12-29T07:12:41.707Z,76.80
2022-12-29T07:15:05.586Z,76.90
2022-12-29T07:17:28.913Z,77.10
2022-12-29T07:19:52.256Z,76.80
2022-12-29T07:22:15.864Z,77.10
2022-12-29T07:24:39.116Z,76.50
2022-12-29T07:27:03.718Z,76.60
2022-12-29T07:29:26.976Z,76.20
2022-12-29T07:31:50.288Z,74.90
2022-12-29T07:34:13.688Z,75.50
2022-12-29T07:36:37.254Z,75.30
2022-12-29T07:39:00.913Z,75.40
2022-12-29T07:41:24.621Z,75.70
2022-12-29T07:43:50.657Z,75.30
2022-12-29T07:46:55.407Z,75.60
2022-12-29T07:49:20.702Z,75.10
2022-12-29T07:51:43.996Z,76.50
2022-12-29T07:54:07.471Z,75.60
2022-12-29T07:56:30.881Z,74.10
2022-12-29T07:58:55.510Z,75.20
2022-12-29T08:01:19.143Z,75.10
2022-12-29T08:03:42.691Z,75.60
2022-12-29T08:06:06.492Z,76.10
2022-12-29T08:08:29.810Z,75.20
2022-12-29T08:10:53.101Z,74.90
2022-12-29T08:13:16.839Z,74.70
2022-12-29T08:15:41.886Z,75.20
2022-12-29T08:18:06.019Z,74.20
2022-12-29T08:20:29.405Z,74.60
2022-12-29T08:22:53.744Z,75.20
2022-12-29T08:25:17.180Z,74.80
2022-12-29T08:27:41.039Z,75.00
2022-12-29T08:30:04.663Z,75.60
2022-12-29T08:32:30.227Z,75.10
2022-12-29T08:34:53.525Z,75.70
2022-12-29T08:37:16.812Z,75.80
2022-12-29T08:39:40.088Z,76.50
2022-12-29T08:42:03.447Z,75.90
2022-12-29T08:44:26.733Z,76.30
2022-12-29T08:46:50.113Z,75.30
2022-12-29T08:49:14.777Z,75.10
2022-12-29T08:51:38.117Z,75.50
2022-12-29T08:54:01.586Z,76.00
2022-12-29T08:56:25.643Z,76.70
2022-12-29T08:58:53.071Z,76.10
2022-12-29T09:01:18.194Z,76.00
2022-12-29T09:06:26.448Z,76.40
2022-12-29T09:08:50.010Z,76.20
2022-12-29T09:11:17.236Z,75.60
2022-12-29T09:13:40.620Z,75.70
2022-12-29T09:16:04.490Z,76.30
2022-12-29T09:18:27.884Z,76.20
2022-12-29T09:20:51.116Z,75.50
2022-12-29T09:23:15.802Z,76.50
2022-12-29T09:25:39.024Z,76.00
2022-12-29T09:28:05.467Z,75.00
2022-12-29T09:30:28.765Z,74.70
2022-12-29T09:32:55.283Z,75.00
2022-12-29T09:35:19.251Z,75.00
2022-12-29T09:37:42.743Z,74.60
2022-12-29T09:40:12.200Z,74.10
2022-12-29T09:42:44.024Z,74.20
2022-12-29T09:45:17.407Z,73.70
2022-12-29T09:47:41.797Z,73.60
2022-12-29T09:50:14.879Z,73.70
2022-12-29T09:52:44.753Z,72.90
2022-12-29T09:55:17.380Z,73.00
2022-12-29T09:57:47.888Z,72.50
2022-12-29T10:00:18.981Z,72.00
2022-12-29T10:02:46.979Z,72.30
2022-12-29T10:05:30.140Z,72.20
2022-12-29T10:08:12.576Z,71.50
2022-12-29T10:10:49.531Z,71.10
2022-12-29T10:13:28.509Z,70.40
2022-12-29T10:16:04.912Z,71.70
2022-12-29T10:19:03.657Z,70.20
2022-12-29T10:21:44.930Z,69.70
2022-12-29T10:24:14.023Z,69.20
2022-12-29T10:26:42.604Z,68.90
2022-12-29T10:29:08.712Z,69.90
2022-12-29T10:31:38.409Z,69.70
2022-12-29T10:34:08.034Z,69.10
2022-12-29T10:36:37.061Z,69.10
2022-12-29T10:39:09.363Z,69.40
2022-12-29T10:41:42.219Z,69.10
2022-12-29T10:44:05.713Z,70.60
2022-12-29T10:46:35.247Z,68.90
2022-12-29T10:48:59.150Z,68.80
2022-12-29T10:51:26.011Z,68.80
2022-12-29T10:53:54.521Z,69.60
2022-12-29T10:56:31.778Z,68.90
2022-12-29T10:58:57.840Z,69.10
2022-12-29T11:01:21.552Z,69.70
2022-12-29T11:04:05.350Z,69.80
2022-12-29T11:06:31.306Z,69.60
2022-12-29T11:08:59.249Z,69.50
2022-12-29T11:11:28.091Z,69.80
2022-12-29T11:14:00.371Z,69.00
2022-12-29T11:16:32.621Z,70.00
2022-12-29T11:18:55.963Z,69.00
2022-12-29T11:21:33.728Z,69.00
2022-12-29T11:24:02.480Z,68.30
2022-12-29T11:26:31.737Z,67.90
2022-12-29T11:29:26.645Z,68.00
2022-12-29T11:31:52.639Z,68.70
2022-12-29T11:34:21.345Z,68.30
2022-12-29T11:36:44.815Z,68.70
2022-12-29T11:39:13.831Z,67.70
2022-12-29T11:41:37.663Z,67.90
2022-12-29T11:44:04.029Z,68.30
2022-12-29T11:46:32.500Z,67.50
2022-12-29T11:48:59.529Z,67.90
2022-12-29T11:51:30.020Z,68.30
2022-12-29T11:53:58.981Z,67.60
2022-12-29T11:56:40.108Z,67.30
2022-12-29T11:59:39.898Z,66.80
2022-12-29T12:02:27.226Z,67.20
2022-12-29T12:05:03.264Z,67.50
2022-12-29T12:07:39.094Z,67.50
2022-12-29T12:10:08.109Z,67.90
2022-12-29T12:12:40.351Z,67.40
2022-12-29T12:15:06.158Z,67.50
2022-12-29T12:17:53.912Z,67.80
2022-12-29T12:20:23.112Z,68.30
2022-12-29T12:22:55.589Z,68.00
2022-12-29T12:25:22.597Z,68.20
2022-12-29T12:27:53.901Z,68.70
2022-12-29T12:30:20.679Z,68.10
2022-12-29T12:32:54.584Z,68.70
2022-12-29T12:35:28.778Z,68.40
2022-12-29T12:38:18.226Z,68.20
2022-12-29T12:41:09.259Z,68.80
2022-12-29T12:43:42.861Z,68.70
2022-12-29T12:46:22.317Z,68.70
2022-12-29T12:49:15.879Z,68.60
2022-12-29T12:51:48.247Z,68.20
2022-12-29T12:54:33.494Z,68.80
2022-12-29T12:57:13.625Z,68.80
2022-12-29T12:59:51.496Z,68.90
2022-12-29T13:02:33.615Z,68.90
2022-12-29T13:05:35.827Z,68.40
2022-12-29T13:08:27.219Z,68.70
2022-12-29T13:10:56.750Z,69.20
2022-12-29T13:13:55.618Z,68.70
2022-12-29T13:16:31.587Z,69.20
2022-12-29T13:19:01.327Z,68.90
2022-12-29T13:21:50.123Z,69.80
2022-12-29T13:24:27.476Z,69.30
2022-12-29T13:26:56.945Z,70.30
2022-12-29T13:29:26.822Z,69.30
2022-12-29T13:31:58.500Z,69.40
2022-12-29T13:34:35.517Z,70.00
2022-12-29T13:37:04.842Z,69.80
2022-12-29T13:39:36.035Z,70.50
2022-12-29T13:42:00.764Z,70.50
2022-12-29T13:44:34.693Z,69.40
2022-12-29T13:47:05.246Z,69.70
2022-12-29T13:49:29.564Z,69.10
2022-12-29T13:51:55.799Z,68.90
2022-12-29T13:54:41.992Z,68.80
2022-12-29T13:57:12.848Z,69.10
2022-12-29T13:59:46.535Z,69.00
2022-12-29T14:02:22.387Z,69.60
2022-12-29T14:05:00.308Z,69.30
2022-12-29T14:07:23.738Z,69.00
2022-12-29T14:09:52.337Z,69.30
2022-12-29T14:12:30.975Z,69.50
2022-12-29T14:14:54.398Z,69.10
2022-12-29T14:17:22.943Z,69.00
2022-12-29T14:19:47.783Z,68.90
2022-12-29T14:22:13.129Z,69.30
2022-12-29T14:24:46.560Z,70.20
2022-12-29T14:27:55.409Z,69.10
2022-12-29T14:30:50.531Z,69.60
2022-12-29T14:33:16.753Z,69.80
2022-12-29T14:35:43.214Z,70.10
2022-12-29T14:38:28.695Z,70.40
2022-12-29T14:40:53.519Z,69.90
2022-12-29T14:43:27.120Z,70.10
2022-12-29T14:45:58.753Z,69.90
2022-12-29T14:48:44.079Z,70.30
2022-12-29T14:51:29.716Z,70.20
2022-12-29T14:53:53.686Z,70.40
2022-12-29T14:56:18.899Z,69.90
2022-12-29T14:58:50.132Z,70.10
2022-12-29T15:01:24.576Z,70.30
2022-12-29T15:03:51.965Z,71.10
2022-12-29T15:06:19.850Z,70.40
2022-12-29T15:08:52.884Z,70.40
2022-12-29T15:11:20.871Z,70.70
2022-12-29T15:13:49.539Z,71.00
2022-12-29T15:16:25.956Z,71.00
2022-12-29T15:18:49.479Z,70.80
2022-12-29T15:21:17.132Z,70.30
2022-12-29T15:23:41.139Z,70.40
2022-12-29T15:26:08.250Z,70.90
2022-12-29T15:28:41.100Z,70.40
2022-12-29T15:31:08.810Z,70.60
2022-12-29T15:33:32.501Z,70.50
2022-12-29T15:35:58.374Z,70.80
2022-12-29T15:38:32.291Z,71.20
2022-12-29T15:41:00.143Z,70.50
2022-12-29T15:43:46.538Z,70.30
2022-12-29T15:46:13.852Z,70.20
2022-12-29T15:48:40.722Z,70.00
2022-12-29T15:51:04.180Z,69.80
2022-12-29T15:53:30.635Z,70.40
2022-12-29T15:55:58.404Z,70.30
2022-12-29T15:58:29.581Z,70.90
2022-12-29T16:00:55.347Z,71.30
2022-12-29T16:03:20.654Z,72.00
2022-12-29T16:05:52.113Z,71.70
2022-12-29T16:08:33.436Z,72.10
2022-12-29T16:10:58.844Z,73.00
2022-12-29T16:13:29.664Z,73.40
2022-12-29T16:15:59.062Z,73.30
2022-12-29T16:18:28.404Z,73.40
2022-12-29T16:20:52.015Z,74.10
2022-12-29T16:23:22.843Z,73.60
2022-12-29T16:25:46.409Z,73.90
2022-12-29T16:28:21.122Z,73.60
2022-12-29T16:30:44.642Z,73.10
2022-12-29T16:33:08.393Z,73.30
2022-12-29T16:35:47.576Z,73.10
2022-12-29T16:38:17.766Z,73.20
2022-12-29T16:40:52.344Z,73.10
2022-12-29T16:43:29.312Z,73.40
2022-12-29T16:46:29.625Z,72.60
2022-12-29T16:48:56.808Z,71.80
2022-12-29T16:51:30.926Z,71.40
2022-12-29T16:53:56.555Z,70.60
2022-12-29T16:56:23.200Z,70.90
2022-12-29T16:58:49.818Z,70.80
2022-12-29T17:01:15.701Z,70.40
2022-12-29T17:03:45.843Z,71.00
2022-12-29T17:06:16.415Z,74.00
2022-12-29T17:08:46.311Z,75.40
2022-12-29T17:11:41.904Z,76.40
2022-12-29T17:14:05.362Z,77.30
2022-12-29T17:16:28.743Z,79.10
2022-12-29T17:18:52.141Z,80.30
2022-12-29T17:21:15.501Z,82.10
2022-12-29T17:23:38.844Z,83.60
2022-12-29T17:26:04.217Z,84.60
2022-12-29T17:28:32.197Z,84.80
2022-12-29T17:31:00.188Z,85.60
2022-12-29T17:33:23.555Z,84.90
2022-12-29T17:35:50.528Z,85.20
2022-12-29T17:38:21.857Z,86.20
2022-12-29T17:40:45.346Z,87.30
2022-12-29T17:43:14.908Z,87.10
2022-12-29T17:45:39.966Z,87.50
2022-12-29T17:48:03.352Z,87.20
2022-12-29T17:50:29.718Z,87.70
2022-12-29T17:53:00.819Z,87.20
2022-12-29T17:55:31.206Z,87.60
2022-12-29T17:57:58.428Z,87.60
2022-12-29T18:00:27.671Z,87.60
2022-12-29T18:02:51.311Z,87.60
2022-12-29T18:05:21.446Z,86.90
2022-12-29T18:07:44.846Z,87.70
2022-12-29T18:10:09.412Z,87.40
2022-12-29T18:12:39.010Z,87.60
2022-12-29T18:15:02.492Z,87.40
2022-12-29T18:17:27.292Z,87.90
2022-12-29T18:19:54.635Z,87.30
2022-12-29T18:22:17.910Z,87.00
2022-12-29T18:24:41.191Z,86.50
2022-12-29T18:27:13.469Z,86.30
2022-12-29T18:29:36.811Z,85.50
2022-12-29T18:32:00.133Z,86.00
2022-12-29T18:34:24.880Z,85.30
2022-12-29T18:36:48.386Z,85.40
2022-12-29T18:39:12.645Z,85.00
2022-12-29T18:41:35.972Z,83.90
2022-12-29T18:44:00.487Z,83.90
2022-12-29T18:46:24.112Z,83.40
2022-12-29T18:48:47.435Z,83.20
2022-12-29T18:51:18.427Z,82.90
2022-12-29T18:53:41.706Z,83.20
2022-12-29T18:56:05.310Z,83.30
2022-12-29T18:58:33.884Z,82.90
2022-12-29T19:00:57.556Z,81.70
2022-12-29T19:03:21.050Z,82.50
2022-12-29T19:05:46.328Z,82.00
2022-12-29T19:08:13.232Z,81.50
2022-12-29T19:10:39.042Z,81.30
2022-12-29T19:13:02.348Z,82.00
2022-12-29T19:15:28.753Z,81.20
2022-12-29T19:18:24.078Z,81.30
2022-12-29T19:20:39.060Z,81.30
2022-12-29T19:23:06.280Z,80.40
2022-12-29T19:25:31.461Z,80.60
2022-12-29T19:27:55.063Z,80.90
2022-12-29T19:30:19.500Z,81.20
2022-12-29T19:32:42.906Z,81.40
2022-12-29T19:35:07.220Z,80.20
2022-12-29T19:37:30.469Z,80.80
2022-12-29T19:39:54.184Z,80.30
2022-12-29T19:42:18.726Z,80.30
2022-12-29T19:44:41.961Z,80.00
2022-12-29T19:47:05.757Z,79.80
2022-12-29T19:49:29.113Z,79.60
2022-12-29T19:51:52.826Z,79.50
2022-12-29T19:54:16.079Z,80.20
2022-12-29T19:56:42.897Z,79.70
2022-12-29T19:59:07.456Z,80.80
2022-12-29T20:01:30.892Z,80.20
2022-12-29T20:03:54.386Z,80.80
2022-12-29T20:06:19.301Z,80.20
2022-12-29T20:08:43.016Z,81.00
2022-12-29T20:11:08.902Z,80.80
2022-12-29T20:13:34.093Z,79.80
2022-12-29T20:16:04.871Z,80.50
2022-12-29T20:18:29.373Z,80.70
2022-12-29T20:20:53.083Z,80.70
2022-12-29T20:23:16.418Z,80.40
2022-12-29T20:25:45.315Z,80.10
2022-12-29T20:28:10.042Z,80.40
2022-12-29T20:30:33.405Z,79.90
2022-12-29T20:32:58.990Z,80.20
2022-12-29T20:35:24.657Z,79.90
2022-12-29T20:37:48.094Z,79.60
2022-12-29T20:40:11.538Z,79.70
2022-12-29T20:42:34.752Z,79.70
2022-12-29T20:44:57.978Z,80.10
2022-12-29T20:47:21.206Z,80.20
2022-12-29T20:49:45.876Z,80.00
2022-12-29T20:52:09.312Z,79.90
2022-12-29T20:54:38.638Z,79.90
2022-12-29T20:57:03.464Z,80.40
2022-12-29T20:59:28.527Z,80.30
2022-12-29T21:01:52.699Z,80.40
2022-12-29T21:04:16.211Z,80.10
2022-12-29T21:06:41.172Z,80.10
2022-12-29T21:09:05.293Z,79.60
2022-12-29T21:11:29.342Z,79.80
2022-12-29T21:13:52.646Z,80.00
2022-12-29T21:16:18.857Z,79.70
2022-12-29T21:18:42.953Z,79.70
2022-12-29T21:21:08.771Z,79.70
2022-12-29T21:23:34.317Z,79.40
2022-12-29T21:25:57.971Z,79.90
2022-12-29T21:28:22.801Z,80.30
2022-12-29T21:30:46.183Z,80.00
2022-12-29T21:33:09.732Z,80.50
2022-12-29T21:35:36.346Z,80.60
2022-12-29T21:37:59.668Z,80.70
2022-12-29T21:40:24.274Z,81.10
2022-12-29T21:42:47.854Z,81.10
2022-12-29T21:45:29.947Z,81.40
2022-12-29T21:48:11.265Z,81.20
2022-12-29T21:50:34.612Z,81.10
2022-12-29T21:52:57.916Z,81.00
2022-12-29T21:55:21.464Z,81.30
2022-12-29T21:58:03.904Z,81.10
2022-12-29T22:00:44.588Z,81.10
2022-12-29T22:03:25.829Z,80.60
2022-12-29T22:06:06.772Z,80.70
2022-12-29T22:08:47.628Z,80.70
2022-12-29T22:11:28.425Z,79.90
2022-12-29T22:13:55.926Z,80.10
2022-12-29T22:16:19.260Z,80.40
2022-12-29T22:18:42.569Z,79.90
2022-12-29T22:21:06.965Z,80.10
2022-12-29T22:23:30.215Z,80.20
2022-12-29T22:25:53.562Z,80.50
2022-12-29T22:28:17.763Z,80.10
2022-12-29T22:30:42.542Z,79.60
2022-12-29T22:33:06.031Z,79.80
2022-12-29T22:35:29.373Z,79.80
2022-12-29T22:37:52.628Z,79.70
2022-12-29T22:40:15.980Z,79.90
2022-12-29T22:42:39.974Z,79.90
2022-12-29T22:45:03.310Z,79.80
2022-12-29T22:47:28.559Z,79.90
2022-12-29T22:49:52.137Z,79.60
2022-12-29T22:52:15.424Z,79.90
2022-12-29T22:54:38.655Z,80.00
2022-12-29T22:57:01.867Z,79.90
2022-12-29T22:59:25.221Z,80.00
2022-12-29T23:01:49.122Z,80.00
2022-12-29T23:04:59.062Z,79.90
2022-12-29T23:06:57.463Z,79.70
2022-12-29T23:09:23.859Z,79.70
2022-12-29T23:11:47.864Z,79.60
2022-12-29T23:14:11.010Z,80.20
2022-12-29T23:16:34.210Z,80.20
2022-12-29T23:18:57.635Z,80.70
2022-12-29T23:21:22.322Z,80.00
2022-12-29T23:23:56.277Z,80.30
2022-12-29T23:26:21.170Z,80.10
2022-12-29T23:28:44.480Z,80.20
2022-12-29T23:31:07.892Z,79.70
2022-12-29T23:33:31.460Z,79.80
2022-12-29T23:35:54.720Z,80.10
2022-12-29T23:38:19.720Z,79.80
2022-12-29T23:40:43.232Z,80.10
2022-12-29T23:43:06.498Z,80.10
2022-12-29T23:45:29.749Z,80.50
2022-12-29T23:47:53.073Z,80.10
2022-12-29T23:50:16.575Z,80.20
2022-12-29T23:52:39.911Z,80.70
2022-12-29T23:55:05.218Z,80.50
2022-12-29T23:57:28.473Z,81.10
2022-12-29T23:59:51.712Z,80.70
